Time;durP1;ratioP1;P1;durP2;ratioP2;P2;SDS_P1;SDS_P2;PMS_P1;PMS_P2;Temp;Humidity;BMP_temperature;BMP_pressure;BME280_temperature;BME280_humidity;BME280_pressure;Samples;Min_cycle;Max_cycle;Signal;HPM_P1;HPM_P2
2021/04/09 00:02:12;;;;;;;21.00;9.63;;;;;;;6.57;46.45;100908.78;5022135;28;20330;-65
2021/04/09 00:04:38;;;;;;;21.03;9.37;;;;;;;6.34;46.86;100903.34;5021200;28;20053;-71
2021/04/09 00:07:05;;;;;;;16.67;8.32;;;;;;;6.45;47.21;100899.13;5020531;28;20099;-66
2021/04/09 00:09:30;;;;;;;18.08;8.95;;;;;;;6.70;45.75;100906.97;5022361;28;20045;-65
2021/04/09 00:11:56;;;;;;;17.10;8.27;;;;;;;6.86;45.26;100904.09;5021120;28;20324;-71
2021/04/09 00:14:21;;;;;;;16.08;7.50;;;;;;;6.66;45.02;100905.50;5021218;28;20322;-71
2021/04/09 00:16:47;;;;;;;13.77;6.97;;;;;;;6.71;45.22;100913.91;5020990;28;20049;-69
2021/04/09 00:19:15;;;;;;;15.23;7.25;;;;;;;6.70;45.08;100902.56;5020836;28;20308;-72
2021/04/09 00:21:42;;;;;;;12.73;6.45;;;;;;;6.97;44.51;100899.72;5024296;28;20038;-71
2021/04/09 00:24:08;;;;;;;16.00;6.43;;;;;;;6.82;43.98;100898.19;5020615;28;20402;-70
2021/04/09 00:26:34;;;;;;;10.77;6.13;;;;;;;6.98;43.42;100903.22;5020376;28;20049;-71
2021/04/09 00:29:00;;;;;;;12.85;6.20;;;;;;;6.99;44.04;100889.94;5022081;28;20097;-66
2021/04/09 00:31:25;;;;;;;11.60;6.50;;;;;;;7.15;43.32;100896.72;5020853;28;20104;-64
2021/04/09 00:33:51;;;;;;;10.38;5.50;;;;;;;7.05;43.39;100888.63;5020206;28;20029;-64
2021/04/09 00:36:17;;;;;;;14.65;5.50;;;;;;;7.02;43.66;100886.22;5021645;28;20043;-69
2021/04/09 00:38:43;;;;;;;16.92;5.70;;;;;;;7.15;43.29;100886.19;5020610;28;20030;-70
2021/04/09 00:41:09;;;;;;;12.93;5.90;;;;;;;7.18;42.91;100884.16;5024075;28;20271;-69
2021/04/09 00:43:34;;;;;;;22.27;6.32;;;;;;;7.31;42.85;100889.41;5021380;28;20030;-69
2021/04/09 00:46:00;;;;;;;13.82;6.90;;;;;;;7.20;43.00;100887.53;5020851;28;20087;-69
2021/04/09 00:48:25;;;;;;;16.35;6.95;;;;;;;7.25;43.58;100887.19;5020121;28;20022;-64
2021/04/09 00:50:51;;;;;;;12.75;6.28;;;;;;;7.20;43.72;100878.78;5021154;28;20033;-69
2021/04/09 00:53:18;;;;;;;13.82;6.30;;;;;;;7.13;43.34;100894.19;5020825;28;20034;-64
2021/04/09 00:55:44;;;;;;;12.18;6.10;;;;;;;7.09;43.95;100882.19;5020023;28;20053;-69
2021/04/09 00:58:10;;;;;;;12.73;7.20;;;;;;;7.12;44.16;100897.78;5022894;28;20300;-65
2021/04/09 01:00:36;;;;;;;20.00;9.65;;;;;;;7.01;43.84;100893.28;5024319;28;20079;-65
2021/04/09 01:03:01;;;;;;;11.60;6.78;;;;;;;6.96;44.12;100895.41;5024970;28;20225;-65
2021/04/09 01:05:28;;;;;;;11.95;6.68;;;;;;;6.86;44.98;100898.81;5025177;28;20156;-70
2021/04/09 01:07:54;;;;;;;11.48;6.20;;;;;;;6.90;44.25;100898.50;5024240;28;20044;-70
2021/04/09 01:10:20;;;;;;;14.18;6.90;;;;;;;6.96;44.35;100903.31;5024627;28;20383;-65
2021/04/09 01:12:47;;;;;;;14.45;6.40;;;;;;;6.85;44.48;100902.41;5024902;28;20044;-71
2021/04/09 01:15:15;;;;;;;21.77;7.88;;;;;;;6.74;44.52;100905.81;5024508;28;20236;-69
2021/04/09 01:17:46;;;;;;;13.80;7.32;;;;;;;6.68;45.00;100899.19;5024795;28;20022;-72
2021/04/09 01:20:41;;;;;;;20.83;8.02;;;;;;;6.62;45.04;100904.88;5024440;28;20115;-66
2021/04/09 01:23:12;;;;;;;12.38;7.00;;;;;;;6.52;45.56;100903.00;5028087;28;20072;-71
2021/04/09 01:26:10;;;;;;;9.50;5.75;;;;;;;6.60;44.28;100909.41;5025097;28;20041;-66
2021/04/09 01:29:12;;;;;;;12.63;6.07;;;;;;;6.69;44.54;100911.41;5023984;28;20025;-66
2021/04/09 01:31:48;;;;;;;11.13;5.47;;;;;;;6.59;44.53;100912.16;5024045;28;20470;-65
2021/04/09 01:34:17;;;;;;;11.07;5.37;;;;;;;6.30;44.50;100914.19;5024080;28;20040;-70
2021/04/09 01:36:55;;;;;;;28.70;10.30;;;;;;;5.72;46.30;100924.19;5024514;28;20327;-65
2021/04/09 01:39:24;;;;;;;16.40;8.00;;;;;;;5.60;47.82;100929.41;5024056;28;20026;-71
2021/04/09 01:41:52;;;;;;;19.38;8.40;;;;;;;5.49;48.48;100922.25;5022444;28;20029;-66
2021/04/09 01:44:22;;;;;;;16.00;6.82;;;;;;;5.39;49.18;100922.00;5025253;28;20025;-66
2021/04/09 01:46:52;;;;;;;15.18;6.90;;;;;;;5.41;48.20;100919.28;5023812;28;20030;-66
2021/04/09 01:49:19;;;;;;;13.57;7.03;;;;;;;4.98;49.37;100923.81;5023779;28;20026;-66
2021/04/09 01:51:46;;;;;;;13.90;7.13;;;;;;;5.40;49.21;100922.84;5025068;28;20067;-65
2021/04/09 01:54:13;;;;;;;19.92;8.57;;;;;;;5.61;48.66;100918.81;5023596;28;20042;-65
2021/04/09 01:56:40;;;;;;;46.00;15.90;;;;;;;5.48;49.21;100917.09;5023458;28;20048;-65
2021/04/09 01:59:07;;;;;;;27.50;9.60;;;;;;;5.14;50.06;100930.59;5024324;28;20115;-65
2021/04/09 02:01:37;;;;;;;64.90;17.90;;;;;;;5.32;49.67;100919.88;5026763;28;20053;-71
2021/04/09 02:04:04;;;;;;;56.50;16.33;;;;;;;5.32;49.51;100928.59;5026763;28;20029;-72
2021/04/09 02:06:30;;;;;;;51.83;18.13;;;;;;;5.31;49.46;100921.66;5030443;28;20228;-72
2021/04/09 02:08:57;;;;;;;43.22;13.98;;;;;;;5.73;48.82;100928.50;5032647;28;20044;-71
2021/04/09 02:11:23;;;;;;;29.00;10.47;;;;;;;5.89;48.72;100938.84;5039837;28;20164;-66
2021/04/09 02:13:50;;;;;;;43.15;14.20;;;;;;;5.73;49.49;100946.06;5023307;28;20025;-66
2021/04/09 02:16:17;;;;;;;21.57;9.07;;;;;;;5.22;50.69;100939.78;5023938;28;20426;-70
2021/04/09 02:18:43;;;;;;;18.50;7.88;;;;;;;5.10;51.08;100942.22;5022722;28;20232;-71
2021/04/09 02:21:09;;;;;;;14.77;7.07;;;;;;;5.06;51.27;100935.50;5023845;28;20053;-71
2021/04/09 02:23:36;;;;;;;13.30;6.83;;;;;;;5.11;50.98;100935.19;5023265;28;20071;-66
2021/04/09 02:26:03;;;;;;;16.03;6.63;;;;;;;5.32;50.12;100938.25;5023326;28;20204;-71
2021/04/09 02:28:29;;;;;;;18.57;6.77;;;;;;;5.56;49.30;100936.66;5022289;28;20022;-72
2021/04/09 02:31:03;;;;;;;17.65;7.10;;;;;;;5.55;49.26;100931.50;5023593;28;20043;-70
2021/04/09 02:33:30;;;;;;;11.65;6.28;;;;;;;5.72;48.46;100939.13;5023149;28;20063;-66
2021/04/09 02:35:55;;;;;;;13.20;6.13;;;;;;;5.38;48.48;100938.72;5022222;28;20261;-66
2021/04/09 02:38:21;;;;;;;21.20;9.57;;;;;;;5.30;49.52;100945.41;5023682;28;20038;-70
2021/04/09 02:40:48;;;;;;;17.58;7.53;;;;;;;5.30;49.89;100934.91;5022287;28;21247;-71
2021/04/09 02:43:14;;;;;;;16.20;7.23;;;;;;;5.60;49.23;100945.19;5022450;28;20041;-65
2021/04/09 02:45:40;;;;;;;18.20;6.93;;;;;;;5.78;48.75;100946.59;5023269;28;20030;-65
2021/04/09 02:48:07;;;;;;;19.93;7.53;;;;;;;5.31;48.84;100939.19;5022706;28;20890;-66
2021/04/09 02:50:39;;;;;;;15.05;7.03;;;;;;;5.28;49.59;100942.88;5023031;28;20045;-71
2021/04/09 02:53:14;;;;;;;17.77;7.87;;;;;;;5.50;48.86;100955.44;5023004;28;20037;-66
2021/04/09 02:55:45;;;;;;;14.40;7.00;;;;;;;5.35;49.16;100948.56;5022670;28;20045;-65
2021/04/09 02:58:12;;;;;;;16.17;7.97;;;;;;;5.56;48.66;100957.69;5023662;28;20028;-66
2021/04/09 03:00:43;;;;;;;12.93;7.30;;;;;;;5.61;48.77;100962.63;5022276;28;20064;-65
2021/04/09 03:03:10;;;;;;;12.95;6.65;;;;;;;5.70;48.07;100947.09;5022389;28;20034;-65
2021/04/09 03:05:38;;;;;;;17.37;6.93;;;;;;;5.56;48.22;100959.47;5022703;28;20038;-65
2021/04/09 03:08:03;;;;;;;14.77;7.10;;;;;;;5.39;48.78;100947.44;5023700;28;20084;-70
2021/04/09 03:10:29;;;;;;;15.55;8.40;;;;;;;5.76;47.56;100959.84;5021629;28;20045;-71
2021/04/09 03:12:55;;;;;;;20.03;8.83;;;;;;;5.36;48.29;100972.09;5022572;28;20065;-71
2021/04/09 03:15:30;;;;;;;26.37;11.80;;;;;;;5.34;48.63;100974.00;5021721;28;20067;-66
2021/04/09 03:18:00;;;;;;;23.80;10.20;;;;;;;5.43;48.28;100964.69;5021748;28;20072;-67
2021/04/09 03:20:25;;;;;;;43.17;16.03;;;;;;;5.38;48.86;100975.47;5026110;28;20068;-66
2021/04/09 03:22:51;;;;;;;55.22;17.65;;;;;;;5.18;49.09;100977.66;5022177;28;20038;-70
2021/04/09 03:25:17;;;;;;;52.90;16.57;;;;;;;4.93;49.59;100991.50;5021244;28;20232;-70
2021/04/09 03:27:42;;;;;;;18.10;8.38;;;;;;;5.01;49.64;100984.81;5022827;28;20041;-70
2021/04/09 03:30:08;;;;;;;26.70;9.10;;;;;;;5.01;48.85;100984.81;5022353;28;20080;-66
2021/04/09 03:32:34;;;;;;;18.57;7.40;;;;;;;4.99;48.34;100986.69;5022532;28;20068;-71
2021/04/09 03:34:59;;;;;;;10.97;6.17;;;;;;;4.84;48.26;100992.06;5021446;28;20316;-71
2021/04/09 03:37:25;;;;;;;12.27;6.27;;;;;;;4.82;48.02;100994.78;5022770;28;20376;-70
2021/04/09 03:39:50;;;;;;;17.77;6.77;;;;;;;5.10;47.26;100988.66;5022572;28;20029;-66
2021/04/09 03:42:16;;;;;;;13.00;6.00;;;;;;;5.01;47.60;100986.59;5022310;28;20033;-71
2021/04/09 03:44:41;;;;;;;12.83;5.47;;;;;;;5.07;47.35;100994.09;5021920;28;20042;-66
2021/04/09 03:47:07;;;;;;;11.33;5.87;;;;;;;5.11;47.07;100987.72;5021927;28;20381;-70
2021/04/09 03:49:32;;;;;;;10.73;5.53;;;;;;;5.22;47.01;100987.06;5021441;28;20333;-71
2021/04/09 03:51:59;;;;;;;10.17;4.90;;;;;;;5.25;47.00;100995.59;5022811;28;20038;-71
2021/04/09 03:54:25;;;;;;;14.03;5.53;;;;;;;5.14;47.13;100992.78;5021182;28;20026;-72
2021/04/09 03:56:50;;;;;;;16.70;5.87;;;;;;;5.01;47.49;100989.22;5021461;28;20034;-71
2021/04/09 03:59:16;;;;;;;14.53;5.90;;;;;;;4.99;47.54;100994.56;5022966;28;20189;-66
2021/04/09 04:01:43;;;;;;;9.37;5.60;;;;;;;4.90;48.39;101005.66;5020814;28;20030;-72
2021/04/09 04:04:08;;;;;;;9.40;5.23;;;;;;;5.11;48.02;101003.47;5021849;28;20048;-71
2021/04/09 04:06:34;;;;;;;10.50;5.57;;;;;;;5.17;47.62;101010.94;5021704;28;20030;-71
2021/04/09 04:08:59;;;;;;;14.57;6.33;;;;;;;5.25;47.90;101007.88;5021930;28;20132;-71
2021/04/09 04:11:28;;;;;;;11.30;5.50;;;;;;;5.44;47.31;101001.34;5020710;28;20129;-71
2021/04/09 04:13:53;;;;;;;13.87;5.73;;;;;;;5.39;47.60;101019.19;5020927;28;20033;-68
2021/04/09 04:16:19;;;;;;;13.07;6.47;;;;;;;5.42;48.08;101019.00;5022099;28;20103;-70
2021/04/09 04:18:44;;;;;;;14.77;6.27;;;;;;;5.45;47.89;101016.16;5021191;28;20034;-71
2021/04/09 04:21:10;;;;;;;12.38;6.45;;;;;;;5.40;47.98;101007.75;5021579;28;20381;-66
2021/04/09 04:23:35;;;;;;;14.83;6.17;;;;;;;5.52;48.38;101026.28;5020961;28;20097;-66
2021/04/09 04:26:01;;;;;;;17.77;6.60;;;;;;;5.67;47.72;101022.66;5021726;28;20342;-66
2021/04/09 04:28:27;;;;;;;15.23;6.73;;;;;;;5.78;47.61;101023.66;5021766;28;20034;-66
2021/04/09 04:30:55;;;;;;;16.58;7.25;;;;;;;6.00;47.36;101030.16;5021065;28;20038;-66
2021/04/09 04:33:22;;;;;;;14.48;7.75;;;;;;;6.03;47.31;101043.09;5020382;28;20022;-65
2021/04/09 04:35:48;;;;;;;23.00;8.98;;;;;;;5.74;47.74;101043.19;5020159;28;20033;-65
2021/04/09 04:38:15;;;;;;;23.92;8.90;;;;;;;5.75;48.50;101039.63;5021674;28;20292;-70
2021/04/09 04:40:41;;;;;;;18.30;6.70;;;;;;;5.88;47.83;101042.28;5020302;28;20228;-66
2021/04/09 04:43:06;;;;;;;15.80;6.55;;;;;;;5.73;48.20;101038.03;5021562;28;20049;-65
2021/04/09 04:45:32;;;;;;;15.10;6.30;;;;;;;5.98;47.70;101055.72;5021258;28;20042;-71
2021/04/09 04:47:58;;;;;;;15.90;6.85;;;;;;;6.06;47.16;101050.78;5020726;28;20026;-66
2021/04/09 04:50:24;;;;;;;26.80;7.43;;;;;;;6.11;47.11;101046.06;5020000;28;20022;-71
2021/04/09 04:52:50;;;;;;;17.15;7.07;;;;;;;6.13;46.64;101056.47;5022225;28;20026;-66
2021/04/09 04:55:15;;;;;;;17.42;8.30;;;;;;;6.07;46.81;101058.56;5020038;28;20030;-67
2021/04/09 04:57:41;;;;;;;14.90;6.60;;;;;;;6.19;46.80;101062.19;5021168;28;20036;-65
2021/04/09 05:00:07;;;;;;;14.10;6.10;;;;;;;6.12;47.25;101058.28;5019863;28;20041;-65
2021/04/09 05:02:32;;;;;;;22.48;7.80;;;;;;;6.31;46.79;101068.44;5020309;28;20037;-65
2021/04/09 05:04:58;;;;;;;16.75;7.82;;;;;;;6.26;47.74;101062.66;5021025;28;20030;-66
2021/04/09 05:07:23;;;;;;;14.38;7.18;;;;;;;6.35;47.32;101072.56;5021004;28;20060;-65
2021/04/09 05:09:49;;;;;;;24.13;7.88;;;;;;;6.61;47.16;101079.53;5021229;28;20290;-66
2021/04/09 05:12:14;;;;;;;17.58;7.82;;;;;;;6.51;46.33;101081.09;5020586;28;20056;-71
2021/04/09 05:14:40;;;;;;;19.13;8.38;;;;;;;6.51;46.00;101082.88;5019799;28;20049;-71
2021/04/09 05:17:05;;;;;;;19.05;8.18;;;;;;;6.54;45.66;101086.16;5023852;28;20037;-71
2021/04/09 05:19:31;;;;;;;21.15;9.38;;;;;;;6.36;46.88;101088.22;5019645;28;20025;-71
2021/04/09 05:21:56;;;;;;;22.83;9.55;;;;;;;6.52;46.51;101089.84;5021132;28;20030;-66
2021/04/09 05:24:21;;;;;;;19.10;8.90;;;;;;;6.90;46.38;101090.69;5022544;28;20026;-65
2021/04/09 05:26:47;;;;;;;20.48;8.35;;;;;;;7.00;45.31;101085.63;5021555;28;20026;-65
2021/04/09 05:29:12;;;;;;;17.67;8.95;;;;;;;7.08;44.90;101071.94;5023072;28;20064;-65
2021/04/09 05:31:38;;;;;;;15.77;8.13;;;;;;;7.37;44.49;101094.47;5019966;28;20104;-70
2021/04/09 05:34:03;;;;;;;28.63;10.40;;;;;;;7.56;43.94;101100.13;5021201;28;20033;-71
2021/04/09 05:36:29;;;;;;;20.92;9.85;;;;;;;7.63;43.43;101104.00;5023912;28;20040;-66
2021/04/09 05:38:54;;;;;;;15.00;7.82;;;;;;;7.55;43.29;101106.34;5020794;28;20017;-70
2021/04/09 05:41:20;;;;;;;21.02;8.93;;;;;;;7.92;42.62;101104.53;5020178;28;20034;-65
2021/04/09 05:43:45;;;;;;;19.13;8.48;;;;;;;8.16;42.48;101109.78;5020675;28;20064;-70
2021/04/09 05:46:11;;;;;;;17.27;7.60;;;;;;;8.43;41.33;101111.41;5024186;28;20022;-66
2021/04/09 05:48:36;;;;;;;21.60;7.97;;;;;;;8.66;41.48;101101.75;5023257;28;20319;-72
2021/04/09 05:51:02;;;;;;;14.07;7.25;;;;;;;8.72;41.82;101110.03;5024551;28;20061;-68
2021/04/09 05:53:27;;;;;;;21.38;7.55;;;;;;;8.80;40.68;101106.81;5023302;28;20538;-73
2021/04/09 05:55:53;;;;;;;16.08;6.80;;;;;;;9.00;40.21;101103.47;5023196;28;20275;-73
2021/04/09 05:58:18;;;;;;;15.63;7.05;;;;;;;9.23;40.23;101114.91;5024814;28;20093;-65
2021/04/09 06:00:44;;;;;;;18.63;7.45;;;;;;;9.36;39.70;101106.84;5024214;28;20034;-67
2021/04/09 06:03:09;;;;;;;13.55;6.68;;;;;;;9.33;39.09;101107.94;5025667;28;20316;-68
2021/04/09 06:05:35;;;;;;;14.23;6.65;;;;;;;9.44;39.51;101120.34;5032329;28;20069;-68
2021/04/09 06:08:00;;;;;;;17.65;6.78;;;;;;;9.63;39.17;101114.41;5028300;28;20033;-67
2021/04/09 06:10:25;;;;;;;12.77;6.18;;;;;;;9.82;38.27;101128.69;5041709;28;20037;-73
2021/04/09 06:12:51;;;;;;;18.50;6.00;;;;;;;9.87;37.55;101121.22;5025637;28;20026;-72
2021/04/09 06:15:17;;;;;;;11.13;6.00;;;;;;;9.95;37.96;101125.06;5023882;28;20036;-74
2021/04/09 06:17:44;;;;;;;11.45;5.43;;;;;;;10.00;38.18;101115.78;5025446;28;20137;-73
2021/04/09 06:20:10;;;;;;;12.75;5.40;;;;;;;10.14;38.16;101125.25;5024523;28;20097;-72
2021/04/09 06:22:35;;;;;;;11.02;6.20;;;;;;;10.35;37.41;101130.59;5023567;28;20030;-67
2021/04/09 06:25:06;;;;;;;12.18;6.20;;;;;;;10.44;37.07;101129.88;5023148;28;20029;-73
2021/04/09 06:27:32;;;;;;;11.98;5.75;;;;;;;10.48;36.84;101123.34;5022875;28;20041;-72
2021/04/09 06:29:57;;;;;;;11.93;5.93;;;;;;;10.58;37.73;101124.25;5023778;28;20026;-74
2021/04/09 06:32:23;;;;;;;12.80;5.53;;;;;;;10.73;37.46;101130.91;5022882;28;20044;-68
2021/04/09 06:34:48;;;;;;;11.98;4.93;;;;;;;10.95;35.68;101124.63;5023970;28;20029;-72
2021/04/09 06:37:14;;;;;;;15.07;5.93;;;;;;;11.15;36.79;101136.19;5024437;28;20038;-70
2021/04/09 06:39:39;;;;;;;12.75;5.82;;;;;;;11.42;37.28;101135.59;5023261;28;20038;-65
2021/04/09 06:42:06;;;;;;;13.40;5.55;;;;;;;11.44;37.19;101131.00;5023536;28;20030;-71
2021/04/09 06:44:32;;;;;;;14.70;6.18;;;;;;;11.74;36.94;101135.47;5022685;28;20037;-72
2021/04/09 06:46:58;;;;;;;11.43;5.43;;;;;;;11.68;35.10;101136.84;5023302;28;20036;-66
2021/04/09 06:49:25;;;;;;;10.35;5.00;;;;;;;11.59;34.79;101142.97;5022921;28;20212;-67
2021/04/09 06:51:50;;;;;;;15.68;7.22;;;;;;;11.86;35.30;101147.69;5022266;28;20036;-71
2021/04/09 06:54:16;;;;;;;12.23;5.97;;;;;;;11.93;35.39;101140.00;5023966;28;20243;-66
2021/04/09 06:56:43;;;;;;;13.45;5.00;;;;;;;11.94;34.42;101131.06;5022092;28;20104;-71
2021/04/09 06:59:16;;;;;;;11.85;4.95;;;;;;;12.01;34.63;101138.34;5022432;28;20276;-65
2021/04/09 07:01:45;;;;;;;13.85;5.35;;;;;;;12.17;35.06;101132.50;5021833;28;20316;-71
2021/04/09 07:04:14;;;;;;;17.13;5.78;;;;;;;12.43;35.30;101140.75;5036088;28;20343;-70
2021/04/09 07:06:40;;;;;;;9.73;5.03;;;;;;;12.47;34.51;101126.22;5034142;28;20037;-71
2021/04/09 07:09:07;;;;;;;9.73;4.68;;;;;;;12.54;33.95;101138.00;5033044;28;20041;-71
2021/04/09 07:11:36;;;;;;;10.77;4.30;;;;;;;12.78;34.04;101134.88;5033551;28;20197;-71
2021/04/09 07:14:02;;;;;;;11.32;4.57;;;;;;;13.19;33.03;101136.34;5033870;28;20040;-66
2021/04/09 07:16:28;;;;;;;10.18;3.85;;;;;;;13.06;32.45;101133.97;5034112;28;20221;-70
2021/04/09 07:18:57;;;;;;;8.68;3.40;;;;;;;13.17;31.12;101142.78;5032786;28;20061;-71
2021/04/09 07:21:31;;;;;;;6.95;3.75;;;;;;;13.09;30.88;101147.00;5033784;28;20385;-70
2021/04/09 07:24:20;;;;;;;6.83;2.80;;;;;;;13.06;30.97;101147.28;5032452;28;20211;-71
2021/04/09 07:26:48;;;;;;;6.20;3.05;;;;;;;12.77;30.98;101151.81;5035952;28;20041;-70
2021/04/09 07:29:32;;;;;;;6.60;2.70;;;;;;;12.61;30.86;101151.53;5031881;28;20033;-65
2021/04/09 07:32:20;;;;;;;3.80;2.30;;;;;;;12.83;30.23;101156.56;5035047;28;20378;-65
2021/04/09 07:34:55;;;;;;;8.13;2.42;;;;;;;12.87;29.47;101152.63;5031588;28;20193;-70
2021/04/09 07:37:22;;;;;;;4.85;2.70;;;;;;;13.01;29.66;101152.19;5034922;28;20035;-66
2021/04/09 07:39:52;;;;;;;4.78;2.50;;;;;;;13.05;29.96;101139.44;5032208;28;20105;-65
2021/04/09 07:42:18;;;;;;;6.38;2.97;;;;;;;13.09;28.72;101156.78;5032420;28;20331;-65
2021/04/09 07:44:43;;;;;;;4.70;2.15;;;;;;;13.42;28.03;101155.44;5033630;28;20021;-65
2021/04/09 07:47:15;;;;;;;7.32;2.42;;;;;;;13.62;28.91;101158.91;5034205;28;20034;-65
2021/04/09 07:49:41;;;;;;;4.82;2.40;;;;;;;13.84;28.33;101166.50;5033266;28;20033;-71
2021/04/09 07:52:11;;;;;;;6.57;2.55;;;;;;;13.92;27.04;101160.41;5030826;28;20037;-66
2021/04/09 07:54:37;;;;;;;5.65;1.90;;;;;;;13.85;25.95;101167.31;5032712;28;20028;-71
2021/04/09 07:57:03;;;;;;;4.07;1.70;;;;;;;13.86;25.38;101166.34;5033039;28;20096;-65
2021/04/09 07:59:43;;;;;;;3.83;2.28;;;;;;;13.98;26.39;101167.81;5037798;28;20022;-65
2021/04/09 08:02:09;;;;;;;5.20;2.13;;;;;;;14.09;26.93;101167.59;5032636;28;20054;-65
2021/04/09 08:04:43;;;;;;;7.10;2.97;;;;;;;14.32;27.49;101163.50;5033357;28;20132;-65
2021/04/09 08:07:32;;;;;;;9.85;2.92;;;;;;;14.42;25.42;101167.94;5031636;28;20211;-65
2021/04/09 08:09:58;;;;;;;8.38;3.33;;;;;;;14.18;26.77;101155.19;5032381;28;20233;-70
2021/04/09 08:12:27;;;;;;;5.50;2.33;;;;;;;14.33;25.41;101165.19;5031812;28;20045;-68
2021/04/09 08:15:10;;;;;;;5.50;2.55;;;;;;;14.30;26.08;101167.31;5032667;28;20036;-71
2021/04/09 08:17:36;;;;;;;5.75;2.22;;;;;;;14.48;24.63;101157.53;5031064;28;20247;-65
2021/04/09 08:20:09;;;;;;;5.32;2.40;;;;;;;14.08;26.06;101152.59;5031399;28;20035;-65
2021/04/09 08:22:36;;;;;;;7.07;2.77;;;;;;;13.92;25.66;101166.59;5033979;28;20045;-72
2021/04/09 08:25:02;;;;;;;3.80;2.00;;;;;;;14.00;26.02;101166.66;5031871;28;20053;-66
2021/04/09 08:27:28;;;;;;;4.65;2.10;;;;;;;13.80;25.87;101165.09;5039327;28;20363;-71
2021/04/09 08:29:54;;;;;;;6.80;2.40;;;;;;;14.15;26.58;101160.84;5040516;28;20250;-65
2021/04/09 08:32:20;;;;;;;5.10;2.00;;;;;;;14.02;26.22;101164.69;5033522;28;20026;-70
2021/04/09 08:34:45;;;;;;;24.95;5.72;;;;;;;13.91;27.12;101158.75;5040875;28;20059;-66
2021/04/09 08:37:14;;;;;;;6.95;2.45;;;;;;;14.29;26.68;101176.28;5038390;28;20083;-66
2021/04/09 08:39:40;;;;;;;3.78;2.00;;;;;;;14.51;26.63;101162.56;5041707;28;20057;-66
2021/04/09 08:42:06;;;;;;;4.88;2.50;;;;;;;14.45;28.10;101157.00;5037173;28;20363;-71
2021/04/09 08:44:31;;;;;;;10.48;3.17;;;;;;;14.33;26.12;101162.53;5032971;28;20041;-65
2021/04/09 08:46:59;;;;;;;3.38;1.77;;;;;;;14.54;25.23;101164.06;5031280;28;20263;-66
2021/04/09 08:49:27;;;;;;;6.22;2.60;;;;;;;14.69;26.30;101154.56;5033518;28;20029;-65
2021/04/09 08:51:53;;;;;;;4.88;2.25;;;;;;;14.55;26.63;101163.09;5031541;28;20332;-65
2021/04/09 08:54:22;;;;;;;6.05;2.13;;;;;;;14.73;25.50;101160.44;5031571;28;20025;-65
2021/04/09 08:56:49;;;;;;;6.50;2.53;;;;;;;14.57;26.60;101159.31;5038835;28;20069;-66
2021/04/09 08:59:15;;;;;;;8.40;3.45;;;;;;;14.23;28.97;101153.75;5040158;28;20029;-72
2021/04/09 09:01:40;;;;;;;5.85;2.95;;;;;;;13.99;27.00;101154.34;5031851;28;20072;-66
2021/04/09 09:04:21;;;;;;;8.63;3.10;;;;;;;14.10;27.55;101165.78;5031978;28;20025;-71
2021/04/09 09:06:47;;;;;;;3.65;2.40;;;;;;;14.20;27.21;101156.72;5031514;28;20048;-65
2021/04/09 09:09:28;;;;;;;5.15;2.10;;;;;;;13.98;27.36;101163.31;5032270;28;20036;-65
2021/04/09 09:11:55;;;;;;;4.68;2.40;;;;;;;14.20;26.96;101154.06;5032246;28;20396;-72
2021/04/09 09:14:40;;;;;;;5.88;2.17;;;;;;;13.79;27.92;101155.44;5031728;28;20052;-71
2021/04/09 09:17:17;;;;;;;7.85;2.83;;;;;;;13.21;28.67;101166.31;5040183;28;20037;-65
2021/04/09 09:19:44;;;;;;;7.68;3.22;;;;;;;13.14;28.76;101167.00;5037753;28;20032;-65
2021/04/09 09:22:11;;;;;;;5.43;2.10;;;;;;;13.26;27.52;101171.19;5037274;28;20087;-70
2021/04/09 09:25:04;;;;;;;4.75;2.00;;;;;;;13.47;26.05;101169.16;5035044;28;20052;-68
2021/04/09 09:27:49;;;;;;;5.28;2.65;;;;;;;13.70;26.27;101172.31;5039167;28;20096;-66
2021/04/09 09:30:35;;;;;;;5.93;3.38;;;;;;;13.65;26.72;101161.25;5035496;28;20040;-70
2021/04/09 09:33:20;;;;;;;11.85;4.72;;;;;;;13.66;26.14;101155.78;5035623;28;20247;-72
2021/04/09 09:35:58;;;;;;;3.40;1.98;;;;;;;13.76;24.99;101158.41;5033846;28;20676;-66
2021/04/09 09:38:42;;;;;;;6.88;2.38;;;;;;;13.73;25.81;101145.38;5032709;28;20059;-65
2021/04/09 09:41:08;;;;;;;11.80;3.42;;;;;;;13.46;26.02;101151.50;5035803;28;20044;-65
2021/04/09 09:43:33;;;;;;;18.63;5.80;;;;;;;13.45;27.87;101149.84;5033459;28;20021;-66
2021/04/09 09:45:59;;;;;;;4.18;2.97;;;;;;;13.63;27.42;101147.25;5035925;28;20033;-67
2021/04/09 09:48:24;;;;;;;3.13;2.00;;;;;;;13.81;25.83;101148.16;5035155;28;20296;-65
2021/04/09 09:50:50;;;;;;;3.90;2.05;;;;;;;13.77;25.19;101154.75;5034205;28;20030;-65
2021/04/09 09:53:15;;;;;;;4.53;2.00;;;;;;;13.75;25.79;101148.75;5035338;28;20021;-72
2021/04/09 09:55:43;;;;;;;7.43;2.15;;;;;;;13.79;27.03;101142.13;5035794;28;20325;-71
2021/04/09 09:58:23;;;;;;;3.10;1.73;;;;;;;13.67;26.96;101149.47;5034056;28;20033;-66
2021/04/09 10:00:55;;;;;;;4.60;2.00;;;;;;;13.63;26.55;101141.94;5037597;28;20084;-65
2021/04/09 10:03:25;;;;;;;4.38;2.33;;;;;;;13.65;27.27;101143.47;5044201;28;20219;-66
2021/04/09 10:05:54;;;;;;;4.18;2.13;;;;;;;13.90;27.15;101141.94;5040313;28;20049;-72
2021/04/09 10:08:21;;;;;;;4.38;2.35;;;;;;;13.92;27.82;101139.13;5042849;28;20363;-71
2021/04/09 10:11:02;;;;;;;4.13;1.83;;;;;;;14.13;25.94;101141.50;5039426;28;20029;-66
2021/04/09 10:13:35;;;;;;;4.50;1.88;;;;;;;14.04;24.83;101136.09;5033703;28;20021;-71
2021/04/09 10:16:10;;;;;;;5.03;2.00;;;;;;;14.00;25.48;101140.03;5034287;28;20339;-72
2021/04/09 10:18:36;;;;;;;3.97;2.00;;;;;;;13.94;28.08;101137.97;5034701;28;20029;-66
2021/04/09 10:21:32;;;;;;;37.60;12.63;;;;;;;13.67;26.22;101135.34;5034451;28;20029;-65
2021/04/09 10:24:08;;;;;;;28.17;10.38;;;;;;;13.56;26.88;101132.88;5032927;28;20038;-71
2021/04/09 10:26:35;;;;;;;4.78;2.25;;;;;;;13.47;28.12;101141.72;5035647;28;20041;-65
2021/04/09 10:29:01;;;;;;;5.80;2.15;;;;;;;13.51;24.84;101132.44;5034565;28;20025;-72
2021/04/09 10:31:27;;;;;;;4.03;1.70;;;;;;;13.40;25.83;101120.16;5038307;28;20049;-65
2021/04/09 10:33:55;;;;;;;2.92;1.60;;;;;;;13.73;23.60;101142.72;5042206;28;20111;-71
2021/04/09 10:36:26;;;;;;;17.13;6.47;;;;;;;13.73;23.70;101132.09;5034656;28;20041;-65
2021/04/09 10:38:57;;;;;;;2.38;1.70;;;;;;;14.03;21.23;101131.75;5034057;28;20026;-65
2021/04/09 10:41:37;;;;;;;3.53;1.88;;;;;;;14.08;21.49;101131.28;5033402;28;20034;-65
2021/04/09 10:44:16;;;;;;;56.50;18.90;;;;;;;13.77;22.69;101135.28;5037762;28;20088;-71
2021/04/09 10:46:46;;;;;;;17.52;5.90;;;;;;;14.04;21.54;101132.59;5042039;28;20025;-71
2021/04/09 10:49:19;;;;;;;4.25;2.10;;;;;;;14.04;24.08;101130.75;5035399;28;20026;-71
2021/04/09 10:51:50;;;;;;;4.55;2.03;;;;;;;13.96;25.29;101125.34;5034214;28;20044;-71
2021/04/09 10:54:30;;;;;;;3.17;1.83;;;;;;;13.91;24.80;101130.28;5034241;28;20049;-66
2021/04/09 10:57:18;;;;;;;4.60;1.75;;;;;;;14.02;25.88;101123.91;5033302;28;20029;-65
2021/04/09 10:59:48;;;;;;;5.90;1.55;;;;;;;14.06;26.46;101127.94;5033691;28;20042;-65
2021/04/09 11:02:23;;;;;;;9.63;4.15;;;;;;;14.00;24.44;101120.56;5033809;28;20035;-70
2021/04/09 11:04:56;;;;;;;4.60;2.15;;;;;;;13.85;25.94;101117.56;5032214;28;20053;-72
2021/04/09 11:07:48;;;;;;;5.88;2.50;;;;;;;14.08;24.96;101112.66;5033098;28;20025;-71
2021/04/09 11:10:31;;;;;;;3.58;2.15;;;;;;;14.13;24.79;101104.22;5032700;28;20029;-71
2021/04/09 11:12:56;;;;;;;8.38;2.75;;;;;;;14.26;25.55;101107.31;5033817;28;20109;-65
2021/04/09 11:15:22;;;;;;;5.47;2.10;;;;;;;14.05;25.99;101097.81;5029846;28;20029;-65
2021/04/09 11:18:01;;;;;;;7.72;2.30;;;;;;;14.29;25.37;101105.19;5033672;28;20021;-66
2021/04/09 11:20:29;;;;;;;3.60;1.95;;;;;;;14.22;25.91;101089.97;5039258;28;20216;-72
2021/04/09 11:23:07;;;;;;;3.60;1.70;;;;;;;14.39;26.17;101100.63;5041432;28;20088;-66
2021/04/09 11:25:37;;;;;;;4.90;2.03;;;;;;;14.60;25.21;101095.03;5033658;28;20022;-65
2021/04/09 11:28:04;;;;;;;7.60;1.83;;;;;;;14.55;24.88;101091.13;5033611;28;20041;-71
2021/04/09 11:30:31;;;;;;;5.43;1.80;;;;;;;14.43;24.63;101087.03;5034329;28;20025;-72
2021/04/09 11:32:57;;;;;;;7.00;2.90;;;;;;;13.99;26.07;101090.44;5041199;28;20064;-66